createdAt,value
2022-08-23T00:02:27.023Z,10.05
2022-08-23T00:05:08.976Z,10.60
2022-08-23T00:07:39.101Z,10.18
2022-08-23T00:10:08.063Z,11.73
2022-08-23T00:12:34.784Z,11.82
2022-08-23T00:15:01.189Z,13.38
2022-08-23T00:17:33.225Z,12.75
2022-08-23T00:20:02.307Z,11.98
2022-08-23T00:22:28.700Z,13.57
2022-08-23T00:24:55.121Z,13.07
2022-08-23T00:27:21.519Z,16.52
2022-08-23T00:29:49.744Z,13.32
2022-08-23T00:32:22.151Z,12.82
2022-08-23T00:34:49.116Z,15.10
2022-08-23T00:37:16.110Z,15.23
2022-08-23T00:39:42.625Z,12.85
2022-08-23T00:42:32.694Z,14.68
2022-08-23T00:45:21.722Z,14.45
2022-08-23T00:47:50.754Z,13.57
2022-08-23T00:50:26.484Z,14.23
2022-08-23T00:52:56.247Z,13.85
2022-08-23T00:55:23.058Z,12.25
2022-08-23T00:57:49.609Z,12.68
2022-08-23T01:00:16.072Z,14.47
2022-08-23T01:02:44.874Z,11.65
2022-08-23T01:05:12.835Z,14.02
2022-08-23T01:07:49.788Z,11.85
2022-08-23T01:10:28.365Z,14.85
2022-08-23T01:13:09.060Z,14.20
2022-08-23T01:15:43.281Z,13.55
2022-08-23T01:18:11.530Z,14.68
2022-08-23T01:20:46.864Z,13.88
2022-08-23T01:23:27.736Z,12.32
2022-08-23T01:25:54.703Z,13.23
2022-08-23T01:28:21.438Z,14.63
2022-08-23T01:30:48.849Z,13.23
2022-08-23T01:33:15.658Z,12.60
2022-08-23T01:35:47.663Z,13.13
2022-08-23T01:38:14.735Z,15.23
2022-08-23T01:40:41.569Z,15.57
2022-08-23T01:43:09.097Z,14.85
2022-08-23T01:45:36.934Z,17.17
2022-08-23T01:48:06.180Z,15.13
2022-08-23T01:50:33.029Z,17.27
2022-08-23T01:53:00.368Z,14.75
2022-08-23T01:55:27.300Z,14.60
2022-08-23T01:57:57.147Z,18.40
2022-08-23T02:00:26.881Z,13.68
2022-08-23T02:02:53.370Z,15.40
2022-08-23T02:05:20.388Z,11.88
2022-08-23T02:07:47.662Z,11.35
2022-08-23T02:10:14.657Z,10.00
2022-08-23T02:12:41.271Z,11.40
2022-08-23T02:15:08.134Z,13.17
2022-08-23T02:17:34.935Z,12.93
2022-08-23T02:20:02.128Z,14.05
2022-08-23T02:22:28.617Z,15.70
2022-08-23T02:24:55.196Z,14.77
2022-08-23T02:27:21.607Z,13.73
2022-08-23T02:29:48.070Z,14.85
2022-08-23T02:32:18.312Z,15.70
2022-08-23T02:34:51.167Z,14.13
2022-08-23T02:37:31.904Z,14.60
2022-08-23T02:39:58.357Z,13.97
2022-08-23T02:42:24.758Z,11.23
2022-08-23T02:44:51.349Z,12.07
2022-08-23T02:47:18.802Z,12.93
2022-08-23T02:49:46.084Z,10.68
2022-08-23T02:52:12.523Z,11.57
2022-08-23T02:54:39.048Z,12.65
2022-08-23T02:57:06.023Z,11.98
2022-08-23T02:59:32.436Z,12.52
2022-08-23T03:01:59.638Z,11.57
2022-08-23T03:04:26.119Z,10.57
2022-08-23T03:06:52.830Z,10.48
2022-08-23T03:09:19.230Z,10.27
2022-08-23T03:11:49.495Z,11.48
2022-08-23T03:14:16.348Z,11.20
2022-08-23T03:16:42.807Z,10.57
2022-08-23T03:19:09.422Z,10.48
2022-08-23T03:21:35.899Z,12.73
2022-08-23T03:24:06.823Z,11.27
2022-08-23T03:26:36.027Z,13.50
2022-08-23T03:29:03.700Z,12.00
2022-08-23T03:31:30.522Z,11.63
2022-08-23T03:33:58.084Z,13.35
2022-08-23T03:36:27.700Z,13.45
2022-08-23T03:38:54.902Z,15.40
2022-08-23T03:41:21.340Z,12.27
2022-08-23T03:43:47.768Z,13.57
2022-08-23T03:46:22.897Z,13.60
2022-08-23T03:48:59.414Z,15.63
2022-08-23T03:51:28.046Z,17.48
2022-08-23T03:53:54.657Z,15.97
2022-08-23T03:56:27.075Z,17.10
2022-08-23T03:58:57.467Z,16.02
2022-08-23T04:01:28.574Z,16.45
2022-08-23T04:03:55.784Z,17.08
2022-08-23T04:06:22.154Z,16.07
2022-08-23T04:08:48.569Z,16.30
2022-08-23T04:11:15.851Z,16.58
2022-08-23T04:13:42.942Z,15.35
2022-08-23T04:16:09.589Z,16.85
2022-08-23T04:18:36.570Z,17.93
2022-08-23T04:21:07.587Z,18.92
2022-08-23T04:23:33.978Z,18.73
2022-08-23T04:26:00.383Z,20.05
2022-08-23T04:28:28.283Z,18.17
2022-08-23T04:30:55.311Z,20.70
2022-08-23T04:33:22.245Z,22.45
2022-08-23T04:35:48.640Z,20.65
2022-08-23T04:38:18.409Z,20.02
2022-08-23T04:41:11.290Z,23.20
2022-08-23T04:43:38.947Z,24.13
2022-08-23T04:46:05.627Z,24.60
2022-08-23T04:48:33.558Z,24.67
2022-08-23T04:51:00.691Z,26.38
2022-08-23T04:53:29.142Z,24.67
2022-08-23T04:55:55.980Z,24.47
2022-08-23T04:58:22.470Z,25.02
2022-08-23T05:00:51.770Z,26.23
2022-08-23T05:03:18.437Z,24.25
2022-08-23T05:05:44.848Z,22.30
2022-08-23T05:08:11.638Z,23.63
2022-08-23T05:10:38.417Z,22.85
2022-08-23T05:13:04.887Z,24.52
2022-08-23T05:15:31.309Z,24.38
2022-08-23T05:17:57.763Z,23.75
2022-08-23T05:20:24.546Z,21.80
2022-08-23T05:22:50.983Z,20.95
2022-08-23T05:25:17.511Z,22.30
2022-08-23T05:27:44.167Z,21.30
2022-08-23T05:30:15.283Z,22.92
2022-08-23T05:32:42.272Z,25.87
2022-08-23T05:35:09.284Z,23.30
2022-08-23T05:37:35.723Z,21.08
2022-08-23T05:40:02.482Z,20.75
2022-08-23T05:42:28.988Z,23.95
2022-08-23T05:44:55.466Z,20.83
2022-08-23T05:47:24.611Z,21.92
2022-08-23T05:49:51.380Z,23.75
2022-08-23T05:52:17.755Z,22.13
2022-08-23T05:54:44.177Z,20.55
2022-08-23T05:57:11.352Z,23.23
2022-08-23T05:59:37.759Z,21.35
2022-08-23T06:02:04.477Z,19.45
2022-08-23T06:04:31.030Z,22.15
2022-08-23T06:06:58.862Z,21.30
2022-08-23T06:09:26.273Z,20.57
2022-08-23T06:11:53.307Z,19.55
2022-08-23T06:14:19.892Z,19.27
2022-08-23T06:16:50.791Z,21.73
2022-08-23T06:19:19.069Z,19.85
2022-08-23T06:21:45.804Z,19.60
2022-08-23T06:24:12.773Z,18.23
2022-08-23T06:26:42.960Z,21.27
2022-08-23T06:29:12.292Z,21.33
2022-08-23T06:31:48.550Z,22.73
2022-08-23T06:34:24.790Z,18.73
2022-08-23T06:36:58.328Z,19.08
2022-08-23T06:39:27.789Z,18.42
2022-08-23T06:42:02.135Z,16.77
2022-08-23T06:44:29.778Z,19.95
2022-08-23T06:46:57.372Z,19.63
2022-08-23T06:49:25.015Z,16.15
2022-08-23T06:51:53.338Z,16.15
2022-08-23T06:54:23.040Z,16.92
2022-08-23T06:56:54.023Z,14.80
2022-08-23T06:59:21.085Z,14.33
2022-08-23T07:01:59.658Z,12.60
2022-08-23T07:04:34.754Z,14.95
2022-08-23T07:07:02.345Z,14.82
2022-08-23T07:09:30.372Z,12.40
2022-08-23T07:11:57.822Z,13.70
2022-08-23T07:14:25.026Z,13.15
2022-08-23T07:16:54.781Z,11.27
2022-08-23T07:19:28.852Z,11.98
2022-08-23T07:21:56.891Z,12.52
2022-08-23T07:24:23.453Z,10.83
2022-08-23T07:26:52.156Z,11.77
2022-08-23T07:29:20.420Z,13.95
2022-08-23T07:32:06.185Z,11.32
2022-08-23T07:34:33.275Z,13.80
2022-08-23T07:37:01.543Z,13.00
2022-08-23T07:39:28.015Z,11.30
2022-08-23T07:41:54.599Z,12.15
2022-08-23T07:44:21.156Z,13.15
2022-08-23T07:46:53.592Z,11.77
2022-08-23T07:49:20.056Z,13.37
2022-08-23T07:51:49.169Z,15.10
2022-08-23T07:54:16.395Z,11.63
2022-08-23T07:56:43.092Z,10.75
2022-08-23T07:59:10.737Z,11.73
2022-08-23T08:01:38.346Z,9.90
2022-08-23T08:04:06.177Z,11.27
2022-08-23T08:06:46.177Z,11.02
2022-08-23T08:09:14.892Z,12.18
2022-08-23T08:11:44.268Z,11.43
2022-08-23T08:14:11.323Z,9.63
2022-08-23T08:16:44.502Z,7.72
2022-08-23T08:19:13.116Z,8.57
2022-08-23T08:21:42.241Z,8.18
2022-08-23T08:24:11.305Z,11.75
2022-08-23T08:26:37.786Z,10.27
2022-08-23T08:29:05.084Z,8.90
2022-08-23T08:31:31.588Z,9.80
2022-08-23T08:33:58.362Z,9.27
2022-08-23T08:36:42.113Z,10.43
2022-08-23T08:39:13.211Z,8.33
2022-08-23T08:41:48.658Z,10.10
2022-08-23T08:44:41.333Z,7.88
2022-08-23T08:47:17.264Z,8.60
2022-08-23T08:49:53.962Z,8.27
2022-08-23T08:52:25.825Z,9.73
2022-08-23T08:55:09.065Z,8.52
2022-08-23T08:57:43.243Z,6.68
2022-08-23T09:00:18.857Z,8.73
2022-08-23T09:02:46.269Z,7.80
2022-08-23T09:05:20.810Z,8.87
2022-08-23T09:08:31.612Z,9.07
2022-08-23T09:11:27.496Z,8.25
2022-08-23T09:14:44.314Z,7.50
2022-08-23T09:17:37.210Z,11.93
2022-08-23T09:20:06.206Z,7.47
2022-08-23T09:22:47.071Z,9.10
2022-08-23T09:25:16.943Z,6.88
2022-08-23T09:27:45.672Z,9.02
2022-08-23T09:30:16.318Z,7.72
2022-08-23T09:32:45.422Z,6.93
2022-08-23T09:35:19.233Z,8.55
2022-08-23T09:37:59.912Z,7.70
2022-08-23T09:40:33.177Z,6.65
2022-08-23T09:43:07.895Z,7.30
2022-08-23T09:45:37.868Z,9.27
2022-08-23T09:48:06.205Z,7.93
2022-08-23T09:50:39.135Z,7.80
2022-08-23T09:53:11.680Z,7.55
2022-08-23T09:55:41.948Z,6.80
2022-08-23T09:58:36.177Z,8.20
2022-08-23T10:01:14.063Z,8.38
2022-08-23T10:03:42.609Z,7.90
2022-08-23T10:06:11.889Z,10.10
2022-08-23T10:08:51.883Z,7.22
2022-08-23T10:11:32.163Z,7.53
2022-08-23T10:13:58.745Z,8.00
2022-08-23T10:16:39.481Z,6.20
2022-08-23T10:19:18.621Z,7.00
2022-08-23T10:22:23.592Z,6.13
2022-08-23T10:25:00.485Z,6.23
2022-08-23T10:28:14.228Z,7.82
2022-08-23T10:31:25.824Z,7.72
2022-08-23T10:34:13.424Z,7.95
2022-08-23T10:36:58.808Z,7.55
2022-08-23T10:39:28.404Z,8.13
2022-08-23T10:42:07.966Z,8.75
2022-08-23T10:44:40.555Z,7.00
2022-08-23T10:47:32.283Z,6.55
2022-08-23T10:50:03.596Z,7.68
2022-08-23T10:52:36.166Z,6.70
2022-08-23T10:55:17.371Z,6.53
2022-08-23T10:57:47.727Z,8.65
2022-08-23T11:00:22.577Z,6.85
2022-08-23T11:02:59.994Z,6.45
2022-08-23T11:05:30.987Z,7.30
2022-08-23T11:08:03.762Z,7.88
2022-08-23T11:10:55.969Z,8.05
2022-08-23T11:13:27.318Z,5.95
2022-08-23T11:16:15.353Z,8.05
2022-08-23T11:18:48.616Z,7.27
2022-08-23T11:21:17.906Z,6.43
2022-08-23T11:23:54.330Z,8.45
2022-08-23T11:26:27.065Z,6.30
2022-08-23T11:29:22.462Z,6.95
2022-08-23T11:31:59.188Z,6.20
2022-08-23T11:34:30.571Z,7.78
2022-08-23T11:37:18.555Z,7.07
2022-08-23T11:40:00.389Z,7.30
2022-08-23T11:42:46.532Z,6.32
2022-08-23T11:45:28.344Z,6.70
2022-08-23T11:48:19.277Z,7.22
2022-08-23T11:50:50.979Z,5.93
2022-08-23T11:53:54.251Z,6.50
2022-08-23T11:56:56.294Z,8.95
2022-08-23T11:59:52.300Z,6.40
2022-08-23T12:02:47.240Z,7.32
2022-08-23T12:05:21.803Z,8.65
2022-08-23T12:08:20.563Z,6.80
2022-08-23T12:10:46.992Z,7.15
2022-08-23T12:13:19.573Z,6.53
2022-08-23T12:16:04.921Z,7.57
2022-08-23T12:18:36.443Z,5.72
2022-08-23T12:21:05.699Z,6.00
2022-08-23T12:23:47.992Z,6.20
2022-08-23T12:26:40.908Z,5.63
2022-08-23T12:29:23.409Z,8.10
2022-08-23T12:32:11.333Z,6.70
2022-08-23T12:35:30.304Z,6.43
2022-08-23T12:38:22.693Z,7.22
2022-08-23T12:40:54.674Z,6.70
2022-08-23T12:43:27.842Z,6.43
2022-08-23T12:45:57.359Z,6.57
2022-08-23T12:48:26.987Z,6.15
2022-08-23T12:51:14.120Z,5.65
2022-08-23T12:53:45.263Z,5.73
2022-08-23T12:56:18.480Z,6.07
2022-08-23T12:58:51.481Z,6.95
2022-08-23T13:01:22.716Z,7.93
2022-08-23T13:03:56.849Z,6.80
2022-08-23T13:06:28.295Z,6.37
2022-08-23T13:09:01.439Z,6.28
2022-08-23T13:11:32.487Z,7.47
2022-08-23T13:13:58.921Z,5.97
2022-08-23T13:16:45.638Z,5.35
2022-08-23T13:19:26.452Z,5.60
2022-08-23T13:22:32.047Z,5.88
2022-08-23T13:25:28.033Z,5.68
2022-08-23T13:27:57.659Z,6.82
2022-08-23T13:30:36.334Z,6.28
2022-08-23T13:33:07.786Z,7.47
2022-08-23T13:35:49.706Z,5.47
2022-08-23T13:38:31.449Z,5.63
2022-08-23T13:41:02.808Z,7.20
2022-08-23T13:43:43.370Z,6.18
2022-08-23T13:46:22.865Z,7.20
2022-08-23T13:49:09.282Z,5.30
2022-08-23T13:51:41.103Z,5.22
2022-08-23T13:54:17.779Z,6.20
2022-08-23T13:56:51.789Z,7.18
2022-08-23T13:59:31.772Z,6.57
2022-08-23T14:02:05.113Z,6.53
2022-08-23T14:04:32.344Z,6.65
2022-08-23T14:06:58.787Z,6.85
2022-08-23T14:09:25.234Z,6.88
2022-08-23T14:11:57.384Z,7.30
2022-08-23T14:14:24.398Z,6.13
2022-08-23T14:16:50.971Z,6.80
2022-08-23T14:19:54.913Z,5.70
2022-08-23T14:22:07.192Z,8.48
2022-08-23T14:24:33.608Z,6.07
2022-08-23T14:27:01.100Z,7.72
2022-08-23T14:29:30.713Z,6.32
2022-08-23T14:31:59.111Z,6.65
2022-08-23T14:34:27.603Z,5.80
2022-08-23T14:39:40.948Z,6.53
2022-08-23T14:42:08.050Z,6.32
2022-08-23T14:44:35.708Z,5.53
2022-08-23T14:47:03.793Z,6.25
2022-08-23T14:49:30.171Z,6.07
2022-08-23T14:51:56.895Z,6.63
2022-08-23T14:54:26.105Z,6.68
2022-08-23T14:56:53.326Z,6.40
2022-08-23T14:59:20.677Z,6.13
2022-08-23T15:01:48.890Z,6.63
2022-08-23T15:04:22.882Z,5.72
2022-08-23T15:07:16.083Z,6.40
2022-08-23T15:09:38.419Z,7.28
2022-08-23T15:14:52.134Z,7.87
2022-08-23T15:17:18.561Z,6.78
2022-08-23T15:19:44.954Z,6.18
2022-08-23T15:22:18.602Z,7.45
2022-08-23T15:24:48.540Z,7.82
2022-08-23T15:27:14.931Z,6.40
2022-08-23T15:29:41.333Z,8.45
2022-08-23T15:32:07.849Z,7.32
2022-08-23T15:34:37.004Z,6.97
2022-08-23T15:37:06.489Z,7.00
2022-08-23T15:39:35.779Z,7.27
2022-08-23T15:42:02.264Z,6.25
2022-08-23T15:44:28.669Z,6.65
2022-08-23T15:46:55.128Z,6.72
2022-08-23T15:49:23.357Z,7.60
2022-08-23T15:51:49.750Z,6.90
2022-08-23T15:54:16.197Z,7.45
2022-08-23T15:56:46.828Z,8.48
2022-08-23T15:59:15.213Z,6.07
2022-08-23T16:01:41.922Z,7.00
2022-08-23T16:04:08.846Z,7.07
2022-08-23T16:06:36.819Z,7.22
2022-08-23T16:09:06.149Z,7.38
2022-08-23T16:11:32.888Z,5.70
2022-08-23T16:13:59.592Z,5.93
2022-08-23T16:16:30.190Z,6.60
2022-08-23T16:18:58.401Z,6.40
2022-08-23T16:21:27.502Z,6.22
2022-08-23T16:23:55.923Z,6.95
2022-08-23T16:26:34.601Z,8.00
2022-08-23T16:29:04.140Z,6.47
2022-08-23T16:31:38.804Z,7.28
2022-08-23T16:34:09.328Z,8.07
2022-08-23T16:36:36.547Z,6.78
2022-08-23T16:39:04.006Z,7.32
2022-08-23T16:41:30.412Z,7.60
2022-08-23T16:43:56.822Z,6.90
2022-08-23T16:46:24.024Z,6.25
2022-08-23T16:48:50.600Z,8.68
2022-08-23T16:51:17.766Z,6.93
2022-08-23T16:53:44.839Z,5.50
2022-08-23T16:56:29.422Z,6.53
2022-08-23T16:58:56.788Z,5.82
2022-08-23T17:01:23.363Z,6.50
2022-08-23T17:03:50.565Z,6.95
2022-08-23T17:06:17.775Z,7.40
2022-08-23T17:08:45.006Z,7.63
2022-08-23T17:11:19.266Z,7.18
2022-08-23T17:13:49.489Z,5.68
2022-08-23T17:16:15.896Z,6.30
2022-08-23T17:18:42.382Z,7.50
2022-08-23T17:21:09.238Z,6.47
2022-08-23T17:23:37.748Z,6.88
2022-08-23T17:26:08.219Z,7.18
2022-08-23T17:28:35.456Z,6.55
2022-08-23T17:31:01.839Z,6.90
2022-08-23T17:33:28.477Z,6.72
2022-08-23T17:35:54.906Z,6.60
2022-08-23T17:38:21.390Z,6.05
2022-08-23T17:40:48.080Z,7.05
2022-08-23T17:43:14.499Z,8.67
2022-08-23T17:45:46.645Z,8.00
2022-08-23T17:48:14.969Z,6.93
2022-08-23T17:50:43.465Z,7.72
2022-08-23T17:53:11.879Z,8.52
2022-08-23T17:55:39.788Z,9.03
2022-08-23T17:58:08.708Z,11.23
2022-08-23T18:00:38.860Z,9.52
2022-08-23T18:03:06.010Z,8.05
2022-08-23T18:05:33.891Z,7.78
2022-08-23T18:08:00.820Z,8.37
2022-08-23T18:10:29.755Z,6.55
2022-08-23T18:12:57.226Z,7.78
2022-08-23T18:15:24.260Z,9.07
2022-08-23T18:17:50.788Z,7.95
2022-08-23T18:20:21.231Z,7.57
2022-08-23T18:22:48.399Z,8.10
2022-08-23T18:25:16.971Z,7.65
2022-08-23T18:28:03.118Z,7.35
2022-08-23T18:30:30.073Z,8.30
2022-08-23T18:32:57.652Z,6.63
2022-08-23T18:35:30.439Z,8.35
2022-08-23T18:37:57.867Z,8.77
2022-08-23T18:40:25.826Z,8.98
2022-08-23T18:42:52.347Z,8.32
2022-08-23T18:45:19.232Z,10.37
2022-08-23T18:47:48.600Z,10.80
2022-08-23T18:50:15.995Z,9.50
2022-08-23T18:52:42.574Z,10.68
2022-08-23T18:55:09.458Z,8.80
2022-08-23T18:57:35.906Z,10.47
2022-08-23T19:00:04.653Z,8.57
2022-08-23T19:02:31.174Z,9.35
2022-08-23T19:04:57.637Z,8.40
2022-08-23T19:07:24.029Z,9.55
2022-08-23T19:09:50.629Z,8.30
2022-08-23T19:12:17.578Z,7.30
2022-08-23T19:14:44.007Z,6.63
2022-08-23T19:17:10.445Z,9.48
2022-08-23T19:19:36.976Z,8.45
2022-08-23T19:22:04.354Z,9.27
2022-08-23T19:24:31.318Z,8.18
2022-08-23T19:26:57.728Z,7.68
2022-08-23T19:29:24.149Z,9.45
2022-08-23T19:31:50.697Z,8.48
2022-08-23T19:34:19.807Z,8.10
2022-08-23T19:36:51.759Z,10.32
2022-08-23T19:39:26.610Z,10.40
2022-08-23T19:41:53.292Z,10.05
2022-08-23T19:44:20.043Z,11.02
2022-08-23T19:46:46.564Z,10.07
2022-08-23T19:49:14.546Z,10.20
2022-08-23T19:51:42.455Z,9.32
2022-08-23T19:54:11.564Z,10.73
2022-08-23T19:56:38.968Z,12.52
2022-08-23T19:59:08.435Z,11.73
2022-08-23T20:01:36.143Z,10.05
2022-08-23T20:04:02.962Z,13.25
2022-08-23T20:06:31.756Z,11.75
2022-08-23T20:08:58.434Z,11.32
2022-08-23T20:11:24.938Z,12.13
2022-08-23T20:13:53.638Z,11.68
2022-08-23T20:16:20.528Z,13.25
2022-08-23T20:18:47.352Z,12.38
2022-08-23T20:21:14.163Z,15.13
2022-08-23T20:24:03.681Z,15.63
2022-08-23T20:26:30.152Z,16.58
2022-08-23T20:28:59.812Z,14.48
2022-08-23T20:31:30.368Z,18.75
2022-08-23T20:33:56.922Z,16.63
2022-08-23T20:36:24.632Z,16.00
2022-08-23T20:38:51.402Z,17.63
2022-08-23T20:41:17.799Z,19.70
2022-08-23T20:43:47.659Z,16.70
2022-08-23T20:46:14.658Z,27.10
2022-08-23T20:48:41.140Z,22.73
2022-08-23T20:51:08.114Z,25.48
2022-08-23T20:53:35.239Z,21.70
2022-08-23T20:56:02.525Z,22.27
2022-08-23T20:58:29.227Z,23.67
2022-08-23T21:00:55.827Z,31.47
2022-08-23T21:03:23.485Z,31.25
2022-08-23T21:05:50.289Z,32.17
2022-08-23T21:08:17.144Z,30.70
2022-08-23T21:10:45.050Z,29.92
2022-08-23T21:13:12.058Z,36.93
2022-08-23T21:15:38.818Z,35.78
2022-08-23T21:18:05.800Z,34.15
2022-08-23T21:20:32.228Z,35.47
2022-08-23T21:22:58.672Z,39.08
2022-08-23T21:25:25.120Z,35.10
2022-08-23T21:27:51.515Z,39.47
2022-08-23T21:30:17.942Z,36.97
2022-08-23T21:32:44.318Z,35.75
2022-08-23T21:35:11.287Z,41.45
2022-08-23T21:37:38.097Z,38.97
2022-08-23T21:40:05.229Z,40.13
2022-08-23T21:42:31.691Z,43.75
2022-08-23T21:44:58.202Z,41.40
2022-08-23T21:47:24.639Z,41.20
2022-08-23T21:49:51.076Z,45.43
2022-08-23T21:52:17.492Z,45.10
2022-08-23T21:54:43.955Z,45.85
2022-08-23T21:57:10.924Z,49.70
2022-08-23T21:59:37.502Z,50.80
2022-08-23T22:02:04.183Z,46.40
2022-08-23T22:04:30.655Z,41.03
2022-08-23T22:06:58.590Z,44.38
2022-08-23T22:09:31.132Z,42.80
2022-08-23T22:12:00.359Z,47.80
2022-08-23T22:14:31.584Z,41.17
2022-08-23T22:16:58.855Z,43.85
2022-08-23T22:19:25.345Z,46.63
2022-08-23T22:21:52.708Z,49.15
2022-08-23T22:24:25.609Z,45.75
2022-08-23T22:26:54.498Z,52.40
2022-08-23T22:29:21.237Z,53.03
2022-08-23T22:31:48.241Z,52.58
2022-08-23T22:34:14.763Z,55.70
2022-08-23T22:36:41.938Z,61.08
2022-08-23T22:39:08.389Z,57.33
2022-08-23T22:41:35.141Z,62.10
2022-08-23T22:44:03.227Z,55.42
2022-08-23T22:46:31.411Z,56.92
2022-08-23T22:48:58.374Z,65.65
2022-08-23T22:51:29.765Z,65.17
2022-08-23T22:54:02.141Z,60.55
2022-08-23T22:56:37.993Z,62.22
2022-08-23T22:59:04.524Z,57.55
2022-08-23T23:01:34.880Z,61.90
2022-08-23T23:04:04.041Z,61.50
2022-08-23T23:06:31.246Z,65.22
2022-08-23T23:08:57.741Z,64.07
2022-08-23T23:11:26.219Z,63.70
2022-08-23T23:13:53.216Z,73.47
2022-08-23T23:16:22.965Z,69.67
2022-08-23T23:19:08.419Z,71.93
2022-08-23T23:21:38.891Z,74.28
2022-08-23T23:24:05.988Z,87.43
2022-08-23T23:26:32.565Z,77.00
2022-08-23T23:28:58.979Z,76.80
2022-08-23T23:31:25.638Z,75.82
2022-08-23T23:33:52.217Z,77.78
2022-08-23T23:36:18.768Z,75.38
2022-08-23T23:38:46.408Z,75.68
2022-08-23T23:41:13.373Z,86.00
2022-08-23T23:43:40.360Z,74.18
2022-08-23T23:46:11.323Z,82.03
2022-08-23T23:48:43.282Z,70.97
2022-08-23T23:51:13.174Z,81.72
2022-08-23T23:53:39.930Z,78.43
2022-08-23T23:56:10.480Z,82.10
2022-08-23T23:58:37.941Z,82.35
